Time;durP1;ratioP1;P1;durP2;ratioP2;P2;SDS_P1;SDS_P2;PMS_P1;PMS_P2;Temp;Humidity;BMP_temperature;BMP_pressure;BME280_temperature;BME280_humidity;BME280_pressure;Samples;Min_cycle;Max_cycle;Signal;HPM_P1;HPM_P2
2024/02/27 00:00:18;;;;;;;10.90;4.80;;;;;;;11.14;50.68;102018.30;106808;1269;22530;-55
2024/02/27 00:02:46;;;;;;;9.90;4.30;;;;;;;11.12;50.67;102017.64;106912;1267;23894;-55
2024/02/27 00:05:14;;;;;;;12.70;5.10;;;;;;;11.10;50.69;102016.08;106868;1268;22526;-55
2024/02/27 00:07:42;;;;;;;8.00;4.20;;;;;;;11.08;50.67;102018.17;106985;1256;22525;-55
2024/02/27 00:10:14;;;;;;;10.60;4.40;;;;;;;11.06;50.76;102016.63;106876;1262;22541;-55
2024/02/27 00:12:42;;;;;;;9.20;4.00;;;;;;;11.05;50.77;102012.45;106192;1257;1003368;-55
2024/02/27 00:15:10;;;;;;;12.50;5.30;;;;;;;11.05;50.77;102015.05;106935;1266;22850;-55
2024/02/27 00:17:37;;;;;;;8.90;4.30;;;;;;;11.05;50.87;102008.63;106825;1257;25359;-55
2024/02/27 00:20:07;;;;;;;11.10;4.10;;;;;;;11.04;50.86;102004.29;107115;1254;22650;-55
2024/02/27 00:22:34;;;;;;;12.70;5.60;;;;;;;11.02;50.75;102009.17;106901;1257;25386;-55
2024/02/27 00:25:03;;;;;;;10.80;4.40;;;;;;;11.02;50.81;102010.38;106834;1260;22917;-55
2024/02/27 00:27:30;;;;;;;9.30;4.30;;;;;;;11.03;50.79;102016.11;106809;1258;22534;-55
2024/02/27 00:29:58;;;;;;;10.30;5.10;;;;;;;11.05;50.85;102013.84;106889;1261;22533;-55
2024/02/27 00:32:26;;;;;;;13.40;5.60;;;;;;;11.05;50.76;102013.13;106790;1254;22533;-55
2024/02/27 00:34:54;;;;;;;10.50;4.60;;;;;;;11.06;50.66;102014.70;106940;1254;22539;-55
2024/02/27 00:37:21;;;;;;;11.70;5.30;;;;;;;11.05;50.72;102017.65;106775;1264;22542;-55
2024/02/27 00:39:49;;;;;;;9.10;4.30;;;;;;;11.03;50.74;102017.66;106760;1258;22549;-55
2024/02/27 00:42:17;;;;;;;12.90;4.10;;;;;;;11.03;50.73;102022.01;106135;1265;1003642;-55
2024/02/27 00:44:45;;;;;;;7.20;4.30;;;;;;;11.04;50.80;102021.14;106857;1269;22533;-55
2024/02/27 00:47:13;;;;;;;11.50;4.80;;;;;;;11.04;50.89;102022.36;106607;1264;23893;-55
2024/02/27 00:49:41;;;;;;;11.20;4.60;;;;;;;11.05;50.91;102023.55;106977;1255;22530;-55
2024/02/27 00:52:10;;;;;;;11.10;4.80;;;;;;;11.07;50.85;102021.81;106123;1270;1002871;-55
2024/02/27 00:54:38;;;;;;;11.20;4.60;;;;;;;11.08;50.75;102016.78;106769;1263;24371;-55
2024/02/27 00:57:06;;;;;;;8.90;4.60;;;;;;;11.05;50.76;102015.23;106931;1267;22541;-55
2024/02/27 00:59:33;;;;;;;8.80;4.50;;;;;;;11.03;50.72;102014.19;106868;1254;340919;-56
2024/02/27 01:02:01;;;;;;;13.00;4.90;;;;;;;11.01;50.51;102013.50;106820;1260;22531;-54
2024/02/27 01:04:29;;;;;;;8.20;4.10;;;;;;;11.01;50.30;102013.85;106966;1254;25515;-54
2024/02/27 01:06:56;;;;;;;9.20;4.10;;;;;;;10.99;50.36;102014.38;106964;1254;22545;-55
2024/02/27 01:09:24;;;;;;;12.50;4.70;;;;;;;10.98;50.28;102013.88;106865;1269;22538;-55
2024/02/27 01:11:52;;;;;;;13.60;7.70;;;;;;;10.96;50.43;102010.92;106822;1261;22553;-55
2024/02/27 01:14:20;;;;;;;21.70;11.90;;;;;;;10.95;50.47;102009.52;106899;1254;22545;-55
2024/02/27 01:16:48;;;;;;;18.80;9.80;;;;;;;10.93;50.40;102007.80;106958;1256;22542;-54
2024/02/27 01:19:16;;;;;;;11.60;6.20;;;;;;;10.90;50.30;102005.89;106835;1257;22541;-55
2024/02/27 01:21:44;;;;;;;10.10;4.40;;;;;;;10.88;50.27;102002.62;106857;1254;22543;-55
2024/02/27 01:24:12;;;;;;;10.30;3.80;;;;;;;10.87;50.23;102004.52;106746;1257;24221;-55
2024/02/27 01:26:39;;;;;;;8.70;3.50;;;;;;;10.85;50.08;102006.95;106775;1271;22533;-55
2024/02/27 01:29:07;;;;;;;10.50;3.50;;;;;;;10.85;50.01;102011.48;106830;1258;25246;-54
2024/02/27 01:31:36;;;;;;;9.70;3.30;;;;;;;10.84;49.78;102015.63;106690;1268;24466;-55
2024/02/27 01:34:04;;;;;;;7.70;3.30;;;;;;;10.83;49.65;102015.48;106133;1260;1003812;-55
2024/02/27 01:36:32;;;;;;;6.00;2.90;;;;;;;10.82;49.48;102017.38;106710;1261;22530;-54
2024/02/27 01:38:59;;;;;;;10.20;4.10;;;;;;;10.80;49.12;102014.27;106895;1269;22572;-54
2024/02/27 01:41:28;;;;;;;6.80;2.90;;;;;;;10.77;49.00;102011.50;106859;1257;25294;-55
2024/02/27 01:43:56;;;;;;;6.50;3.60;;;;;;;10.75;49.01;102006.83;106824;1258;22539;-54
2024/02/27 01:46:24;;;;;;;9.50;3.80;;;;;;;10.74;48.92;102006.98;106964;1254;22534;-55
2024/02/27 01:48:53;;;;;;;7.50;3.70;;;;;;;10.75;48.94;102009.25;106078;1264;1002930;-55
2024/02/27 01:51:21;;;;;;;9.50;4.00;;;;;;;10.74;48.61;102006.81;106840;1258;22531;-55
2024/02/27 01:53:56;;;;;;;8.20;4.20;;;;;;;10.74;48.43;102007.50;106810;1259;22535;-54
2024/02/27 01:56:24;;;;;;;8.10;3.50;;;;;;;10.71;48.53;102008.56;106786;1264;22511;-55
2024/02/27 01:58:51;;;;;;;9.60;3.20;;;;;;;10.70;48.49;102009.26;106829;1273;22538;-55
2024/02/27 02:01:20;;;;;;;9.70;3.30;;;;;;;10.69;48.69;102013.08;106819;1270;22527;-55
2024/02/27 02:03:47;;;;;;;6.30;3.20;;;;;;;10.63;49.06;102015.88;106916;1257;25298;-55
2024/02/27 02:06:15;;;;;;;7.00;3.20;;;;;;;10.52;49.27;102014.85;106158;1264;1002988;-55
2024/02/27 02:08:43;;;;;;;8.60;3.30;;;;;;;10.65;48.89;102015.01;106821;1270;22605;-55
2024/02/27 02:11:11;;;;;;;7.60;3.40;;;;;;;10.68;48.68;102019.50;106775;1257;22532;-54
2024/02/27 02:13:39;;;;;;;9.60;3.60;;;;;;;10.69;48.63;102021.59;106881;1268;22560;-55
2024/02/27 02:16:07;;;;;;;13.00;3.20;;;;;;;10.71;48.75;102022.27;106814;1260;22989;-55
2024/02/27 02:18:35;;;;;;;9.30;4.40;;;;;;;10.75;48.63;102024.86;106783;1261;22945;-55
2024/02/27 02:21:03;;;;;;;7.60;3.40;;;;;;;10.77;48.56;102026.42;106808;1258;22532;-55
2024/02/27 02:23:31;;;;;;;9.20;4.70;;;;;;;10.77;48.47;102027.98;106673;1260;25371;-55
2024/02/27 02:26:00;;;;;;;12.70;3.80;;;;;;;10.76;48.43;102032.48;106817;1260;22533;-55
2024/02/27 02:28:28;;;;;;;6.60;3.70;;;;;;;10.76;48.61;102033.20;106849;1254;23173;-55
2024/02/27 02:30:56;;;;;;;7.80;3.40;;;;;;;10.77;48.68;102036.66;106892;1257;23882;-55
2024/02/27 02:33:24;;;;;;;7.90;3.30;;;;;;;10.77;48.83;102038.74;106890;1254;24785;-55
2024/02/27 02:35:52;;;;;;;7.10;3.10;;;;;;;10.76;48.82;102037.18;106926;1272;22593;-55
2024/02/27 02:38:19;;;;;;;8.30;3.50;;;;;;;10.74;48.95;102038.58;106873;1257;22993;-55
2024/02/27 02:40:47;;;;;;;9.20;3.00;;;;;;;10.74;48.98;102039.62;106791;1270;22530;-55
2024/02/27 02:43:15;;;;;;;7.30;3.90;;;;;;;10.73;49.00;102046.73;106946;1255;22534;-54
2024/02/27 02:45:42;;;;;;;12.50;6.30;;;;;;;10.71;48.93;102047.26;106819;1254;22641;-55
2024/02/27 02:48:11;;;;;;;12.30;6.00;;;;;;;10.70;49.04;102048.83;106826;1259;22523;-54
2024/02/27 02:50:39;;;;;;;11.20;4.50;;;;;;;10.69;49.07;102047.79;106869;1261;22571;-54
2024/02/27 02:53:06;;;;;;;13.80;4.10;;;;;;;10.69;49.06;102052.65;106422;1264;24241;-55
2024/02/27 02:55:34;;;;;;;7.30;3.50;;;;;;;10.70;49.03;102052.11;106149;1260;1003328;-54
2024/02/27 02:58:02;;;;;;;8.10;3.50;;;;;;;10.70;48.98;102051.60;106032;1257;1003807;-54
2024/02/27 03:00:30;;;;;;;7.90;3.80;;;;;;;10.68;48.81;102052.13;106869;1269;25426;-55
2024/02/27 03:02:58;;;;;;;11.60;3.80;;;;;;;10.65;49.01;102051.60;106828;1260;22533;-55
2024/02/27 03:05:27;;;;;;;9.80;4.50;;;;;;;10.64;49.02;102049.17;106977;1257;25313;-54
2024/02/27 03:07:55;;;;;;;6.40;3.60;;;;;;;10.64;48.96;102050.40;106936;1254;25358;-55
2024/02/27 03:10:22;;;;;;;8.30;5.70;;;;;;;10.65;49.03;102044.67;106918;1264;24368;-54
2024/02/27 03:12:50;;;;;;;11.90;4.30;;;;;;;10.66;49.09;102045.01;106873;1269;22522;-55
2024/02/27 03:15:17;;;;;;;6.70;4.00;;;;;;;10.66;49.00;102048.48;106831;1258;22554;-54
2024/02/27 03:17:45;;;;;;;8.60;3.60;;;;;;;10.67;48.98;102054.21;106720;1264;22540;-55
2024/02/27 03:20:14;;;;;;;9.00;3.20;;;;;;;10.68;48.92;102054.22;106825;1256;22531;-55
2024/02/27 03:22:41;;;;;;;10.20;4.70;;;;;;;10.68;49.08;102057.34;106162;1257;1003473;-54
2024/02/27 03:25:10;;;;;;;10.30;4.70;;;;;;;10.68;49.11;102057.50;106792;1258;24373;-56
2024/02/27 03:27:38;;;;;;;20.30;9.90;;;;;;;10.67;49.07;102059.59;106833;1256;22519;-55
2024/02/27 03:30:09;;;;;;;13.70;6.70;;;;;;;10.68;48.95;102059.75;106031;1257;1003698;-55
2024/02/27 03:32:37;;;;;;;10.40;5.20;;;;;;;10.68;49.01;102064.63;106756;1261;24390;-55
2024/02/27 03:35:07;;;;;;;9.30;4.10;;;;;;;10.65;49.20;102073.30;106759;1257;22562;-55
2024/02/27 03:37:35;;;;;;;7.70;3.60;;;;;;;10.66;49.33;102074.70;106935;1260;22636;-54
2024/02/27 03:40:05;;;;;;;14.60;7.00;;;;;;;10.65;49.39;102076.77;106869;1260;22529;-55
2024/02/27 03:42:34;;;;;;;18.40;8.30;;;;;;;10.67;49.29;102074.69;106828;1255;25250;-55
2024/02/27 03:45:02;;;;;;;14.10;6.60;;;;;;;10.68;49.29;102076.23;106817;1257;25296;-55
2024/02/27 03:47:29;;;;;;;12.60;5.20;;;;;;;10.67;49.37;102073.13;106727;1260;24269;-54
2024/02/27 03:49:57;;;;;;;7.00;3.60;;;;;;;10.62;49.30;102064.64;106818;1254;22544;-55
2024/02/27 03:52:25;;;;;;;8.80;4.00;;;;;;;10.53;49.43;102066.02;107053;1253;22553;-55
2024/02/27 03:54:53;;;;;;;6.30;3.40;;;;;;;10.57;49.57;102072.62;106773;1259;22546;-55
2024/02/27 03:57:20;;;;;;;10.70;5.30;;;;;;;10.46;49.82;102079.21;106905;1257;25392;-55
2024/02/27 03:59:48;;;;;;;7.80;4.10;;;;;;;10.42;49.77;102082.52;106801;1260;23905;-55
2024/02/27 04:02:16;;;;;;;7.60;3.60;;;;;;;10.39;49.85;102080.09;106808;1270;22528;-54
2024/02/27 04:04:43;;;;;;;8.30;3.40;;;;;;;10.38;49.87;102080.26;106883;1260;23665;-55
2024/02/27 04:07:11;;;;;;;8.70;3.90;;;;;;;10.37;49.96;102070.20;107073;1256;22529;-54
2024/02/27 04:09:39;;;;;;;11.00;3.80;;;;;;;10.36;50.04;102072.27;106844;1257;24005;-55
2024/02/27 04:12:07;;;;;;;10.40;3.40;;;;;;;10.36;50.09;102071.24;106879;1268;22555;-55
2024/02/27 04:14:35;;;;;;;8.40;3.40;;;;;;;10.35;50.27;102075.73;106003;1255;1003770;-55
2024/02/27 04:17:03;;;;;;;8.00;3.50;;;;;;;10.32;50.34;102082.34;106086;1254;1003534;-55
2024/02/27 04:19:31;;;;;;;6.50;3.20;;;;;;;10.32;50.57;102083.89;107023;1256;22556;-54
2024/02/27 04:21:59;;;;;;;9.50;3.70;;;;;;;10.31;50.44;102083.03;106772;1254;22654;-55
2024/02/27 04:24:27;;;;;;;7.30;3.60;;;;;;;10.30;50.53;102085.11;106788;1257;25361;-55
2024/02/27 04:26:54;;;;;;;7.20;3.70;;;;;;;10.27;50.55;102092.55;106828;1255;22529;-55
2024/02/27 04:29:22;;;;;;;5.70;3.40;;;;;;;10.24;50.73;102094.13;106836;1269;22531;-55
2024/02/27 04:31:50;;;;;;;8.90;3.90;;;;;;;10.22;50.74;102098.80;106788;1257;22985;-55
2024/02/27 04:34:17;;;;;;;8.40;4.50;;;;;;;10.18;50.80;102101.05;106818;1255;22556;-55
2024/02/27 04:36:49;;;;;;;8.30;3.80;;;;;;;10.17;50.96;102099.83;106868;1257;22530;-54
2024/02/27 04:39:17;;;;;;;10.40;4.10;;;;;;;10.01;51.32;102097.70;106870;1257;22539;-54
2024/02/27 04:41:44;;;;;;;6.10;3.10;;;;;;;9.90;51.79;102094.21;106806;1260;22529;-55
2024/02/27 04:44:12;;;;;;;8.10;3.60;;;;;;;9.89;51.96;102095.25;107057;1261;25013;-54
2024/02/27 04:46:40;;;;;;;10.60;4.20;;;;;;;9.88;51.92;102095.77;106093;1257;1003785;-54
2024/02/27 04:49:08;;;;;;;8.00;3.20;;;;;;;9.87;52.08;102093.16;106026;1255;1003014;-55
2024/02/27 04:51:36;;;;;;;8.30;3.50;;;;;;;9.85;52.11;102093.50;106785;1259;22530;-54
2024/02/27 04:54:04;;;;;;;10.30;5.20;;;;;;;9.83;52.12;102095.94;106830;1254;25253;-54
2024/02/27 04:56:31;;;;;;;9.60;3.70;;;;;;;9.82;52.29;102097.14;106649;1258;24584;-54
2024/02/27 04:59:00;;;;;;;10.20;5.20;;;;;;;9.82;52.40;102101.64;106893;1256;25471;-55
2024/02/27 05:01:28;;;;;;;9.10;4.30;;;;;;;9.82;52.42;102101.99;107088;1252;22526;-55
2024/02/27 05:03:56;;;;;;;10.80;4.50;;;;;;;9.83;52.51;102101.12;106943;1268;22525;-54
2024/02/27 05:06:24;;;;;;;7.70;3.90;;;;;;;9.82;52.55;102101.64;106973;1256;22529;-55
2024/02/27 05:08:52;;;;;;;10.00;4.80;;;;;;;9.79;52.72;102096.61;106770;1255;22646;-55
2024/02/27 05:11:19;;;;;;;9.80;3.80;;;;;;;9.80;52.74;102100.42;106915;1252;25650;-55
2024/02/27 05:13:47;;;;;;;8.30;3.70;;;;;;;9.80;52.70;102101.29;106899;1257;25542;-55
2024/02/27 05:16:15;;;;;;;12.20;5.10;;;;;;;9.80;52.77;102103.36;106713;1261;22545;-54
2024/02/27 05:18:42;;;;;;;10.00;3.90;;;;;;;9.81;52.97;102100.78;106824;1256;25027;-54
2024/02/27 05:21:10;;;;;;;8.70;3.20;;;;;;;9.85;52.90;102103.21;106029;1259;1003497;-55
2024/02/27 05:23:38;;;;;;;8.70;3.20;;;;;;;9.88;52.79;102110.14;106853;1254;25451;-55
2024/02/27 05:26:07;;;;;;;7.70;3.10;;;;;;;9.89;52.91;102115.88;106824;1260;22526;-54
2024/02/27 05:28:36;;;;;;;9.20;3.80;;;;;;;9.90;52.87;102118.14;106724;1257;24274;-55
2024/02/27 05:31:26;;;;;;;11.20;3.50;;;;;;;9.91;52.93;102125.76;106960;1257;22535;-54
2024/02/27 05:33:55;;;;;;;12.80;4.00;;;;;;;9.97;52.99;102126.64;106820;1257;22533;-55
2024/02/27 05:36:23;;;;;;;7.60;3.60;;;;;;;9.99;52.92;102124.91;106889;1260;22537;-55
2024/02/27 05:38:53;;;;;;;8.70;3.40;;;;;;;10.03;52.95;102126.83;107083;1252;22541;-54
2024/02/27 05:41:21;;;;;;;8.40;3.20;;;;;;;10.08;53.02;102132.39;106787;1257;22543;-55
2024/02/27 05:43:49;;;;;;;7.60;3.30;;;;;;;10.09;52.83;102134.14;106922;1255;24287;-55
2024/02/27 05:46:16;;;;;;;9.30;3.60;;;;;;;10.12;52.83;102133.13;106823;1257;22551;-55
2024/02/27 05:48:44;;;;;;;7.10;3.20;;;;;;;10.15;52.89;102133.48;106874;1257;22538;-55
2024/02/27 05:51:12;;;;;;;7.50;3.30;;;;;;;10.21;52.75;102133.48;106994;1257;23890;-55
2024/02/27 05:53:40;;;;;;;11.00;3.60;;;;;;;10.24;52.49;102140.61;106837;1258;22653;-55
2024/02/27 05:56:07;;;;;;;8.90;3.90;;;;;;;10.26;52.40;102142.68;106987;1273;24291;-55
2024/02/27 05:58:35;;;;;;;8.70;3.70;;;;;;;10.30;52.28;102146.16;106847;1254;22543;-54
2024/02/27 06:01:03;;;;;;;10.10;3.80;;;;;;;10.34;52.21;102143.39;107120;1257;22543;-54
2024/02/27 06:03:31;;;;;;;6.60;3.30;;;;;;;10.36;52.10;102147.03;107093;1256;22527;-55
2024/02/27 06:06:00;;;;;;;8.40;3.90;;;;;;;10.39;51.98;102148.25;106882;1255;22557;-54
2024/02/27 06:08:28;;;;;;;10.70;3.50;;;;;;;10.42;51.87;102148.95;106754;1260;22534;-55
2024/02/27 06:10:56;;;;;;;9.50;3.60;;;;;;;10.47;51.99;102153.29;106787;1254;22530;-55
2024/02/27 06:13:23;;;;;;;8.70;4.00;;;;;;;10.70;51.59;102155.39;106752;1261;22648;-55
2024/02/27 06:15:54;;;;;;;8.20;3.80;;;;;;;10.84;51.49;102161.11;106162;1257;1002954;-55
2024/02/27 06:18:21;;;;;;;14.40;3.50;;;;;;;10.93;51.43;102164.74;106871;1255;22627;-55
2024/02/27 06:23:36;;;;;;;8.40;3.70;;;;;;;10.98;51.78;102165.79;106808;1258;24279;-55
2024/02/27 06:26:07;;;;;;;9.40;3.70;;;;;;;11.12;51.53;102169.77;107003;1253;24391;-54
2024/02/27 06:28:35;;;;;;;11.60;3.40;;;;;;;11.28;51.17;102170.59;106898;1256;22534;-54
2024/02/27 06:31:04;;;;;;;13.90;3.60;;;;;;;11.24;51.17;102175.30;106940;1254;22628;-54
2024/02/27 06:33:31;;;;;;;9.30;3.80;;;;;;;11.27;51.07;102173.39;106942;1253;22782;-54
2024/02/27 06:35:59;;;;;;;12.90;4.60;;;;;;;11.34;51.07;102178.74;106891;1256;22547;-54
2024/02/27 06:38:27;;;;;;;10.00;4.10;;;;;;;11.42;50.91;102177.87;106852;1257;25416;-54
2024/02/27 06:40:55;;;;;;;9.10;3.70;;;;;;;11.47;50.66;102183.05;106837;1255;22639;-55
2024/02/27 06:43:22;;;;;;;14.50;3.90;;;;;;;11.50;50.59;102183.92;106045;1261;1003554;-54
2024/02/27 06:45:52;;;;;;;14.60;3.80;;;;;;;11.52;50.56;102185.14;106067;1258;1002956;-54
2024/02/27 06:48:20;;;;;;;9.30;3.90;;;;;;;11.53;50.37;102183.39;106766;1256;22529;-54
2024/02/27 06:50:54;;;;;;;10.00;3.80;;;;;;;11.59;50.30;102190.33;106771;1275;22529;-54
2024/02/27 06:53:23;;;;;;;11.50;3.70;;;;;;;11.60;50.28;102194.33;106831;1257;22534;-55
2024/02/27 06:55:51;;;;;;;11.50;3.70;;;;;;;11.60;50.36;102196.41;107032;1256;24285;-54
2024/02/27 06:58:18;;;;;;;14.20;4.70;;;;;;;11.60;50.45;102203.17;106716;1274;22537;-54
2024/02/27 07:00:46;;;;;;;9.50;3.30;;;;;;;11.63;50.22;102200.23;106907;1257;22573;-54
2024/02/27 07:03:15;;;;;;;14.90;4.20;;;;;;;11.68;50.21;102200.05;106841;1253;25251;-55
2024/02/27 07:05:43;;;;;;;6.70;3.80;;;;;;;11.75;49.85;102203.17;106848;1269;23258;-55
2024/02/27 07:08:20;;;;;;;16.00;4.60;;;;;;;11.99;49.40;102198.89;106809;1269;22535;-55
2024/02/27 07:10:48;;;;;;;12.80;3.70;;;;;;;12.08;49.02;102200.23;106827;1257;22529;-54
2024/02/27 07:13:16;;;;;;;10.20;3.90;;;;;;;12.07;48.95;102198.85;106903;1268;25406;-54
2024/02/27 07:15:45;;;;;;;16.10;4.20;;;;;;;12.07;48.92;102200.77;106722;1273;24309;-55
2024/02/27 07:18:15;;;;;;;13.30;3.70;;;;;;;12.07;48.85;102203.20;106812;1258;25248;-54
2024/02/27 07:20:45;;;;;;;10.60;4.50;;;;;;;12.09;48.91;102204.59;106147;1272;1003735;-54
2024/02/27 07:23:13;;;;;;;15.10;4.60;;;;;;;12.08;48.93;102204.24;106877;1257;23154;-54
2024/02/27 07:25:41;;;;;;;12.80;4.40;;;;;;;12.10;49.02;102206.49;106869;1259;22529;-54
2024/02/27 07:28:09;;;;;;;10.90;3.90;;;;;;;12.13;49.04;102202.13;106751;1269;23391;-54
2024/02/27 07:30:48;;;;;;;9.20;3.70;;;;;;;12.16;48.68;102203.67;106221;1268;1003822;-55
2024/02/27 07:33:16;;;;;;;14.20;4.20;;;;;;;12.18;48.44;102207.14;106952;1257;22544;-55
2024/02/27 07:35:44;;;;;;;14.50;4.60;;;;;;;12.19;48.63;102208.01;106904;1268;23871;-55
2024/02/27 07:38:12;;;;;;;10.70;4.10;;;;;;;12.20;48.58;102202.96;106926;1258;22540;-55
2024/02/27 07:40:40;;;;;;;13.90;5.10;;;;;;;12.20;48.63;102204.35;106064;1269;1003878;-55
2024/02/27 07:43:08;;;;;;;11.10;5.00;;;;;;;12.19;48.76;102208.02;106775;1267;25298;-55
2024/02/27 07:45:36;;;;;;;11.30;4.70;;;;;;;12.18;48.75;102209.75;106778;1268;22568;-55
2024/02/27 07:48:04;;;;;;;9.80;4.80;;;;;;;12.16;48.74;102211.86;106819;1268;22648;-54
2024/02/27 07:50:33;;;;;;;13.90;4.50;;;;;;;12.16;48.82;102212.55;106244;1268;1003114;-55
2024/02/27 07:53:01;;;;;;;7.90;4.70;;;;;;;12.17;48.78;102217.24;106085;1268;1003699;-55
2024/02/27 07:55:29;;;;;;;10.70;5.00;;;;;;;12.17;48.83;102216.36;106866;1258;22530;-55
2024/02/27 07:57:57;;;;;;;11.00;4.70;;;;;;;12.21;48.95;102221.39;106905;1268;22537;-55
2024/02/27 08:00:25;;;;;;;13.90;4.60;;;;;;;12.24;48.74;102226.44;106831;1273;25284;-55
2024/02/27 08:02:53;;;;;;;16.50;4.10;;;;;;;12.25;48.75;102230.09;107022;1268;23883;-55
2024/02/27 08:05:23;;;;;;;12.30;4.10;;;;;;;12.29;48.80;102232.15;106168;1269;1003263;-55
2024/02/27 08:07:51;;;;;;;11.60;4.70;;;;;;;12.30;48.63;102233.70;106821;1268;25317;-55
2024/02/27 08:10:24;;;;;;;11.80;4.40;;;;;;;12.26;48.61;102236.52;106840;1268;22563;-55
2024/02/27 08:12:52;;;;;;;15.20;4.70;;;;;;;12.25;48.52;102233.56;106875;1255;25344;-55
2024/02/27 08:15:20;;;;;;;15.40;4.50;;;;;;;12.26;48.60;102239.83;106817;1273;22530;-55
2024/02/27 08:17:48;;;;;;;13.90;4.80;;;;;;;12.26;48.42;102240.34;106899;1268;24281;-54
2024/02/27 08:20:16;;;;;;;14.20;4.30;;;;;;;12.27;48.41;102244.34;106807;1257;22525;-54
2024/02/27 08:22:44;;;;;;;12.70;5.00;;;;;;;12.30;48.45;102241.38;107066;1268;25395;-54
2024/02/27 08:25:12;;;;;;;14.40;5.00;;;;;;;12.26;48.45;102246.27;106825;1268;25326;-55
2024/02/27 08:27:40;;;;;;;12.00;4.30;;;;;;;12.23;48.58;102242.09;106905;1268;25249;-55
2024/02/27 08:30:08;;;;;;;12.90;4.50;;;;;;;12.22;48.82;102245.05;106991;1268;25351;-55
2024/02/27 08:32:36;;;;;;;17.40;4.80;;;;;;;12.24;48.88;102244.70;106913;1260;25383;-54
2024/02/27 08:35:05;;;;;;;8.00;3.80;;;;;;;12.27;48.83;102245.56;106936;1268;22525;-54
2024/02/27 08:37:33;;;;;;;11.50;4.10;;;;;;;12.29;48.77;102244.33;106675;1272;25250;-55
2024/02/27 08:40:01;;;;;;;11.40;3.90;;;;;;;12.31;48.63;102247.10;106822;1268;25344;-55
2024/02/27 08:42:29;;;;;;;17.00;4.80;;;;;;;12.31;48.56;102247.62;106839;1268;22527;-55
2024/02/27 08:44:57;;;;;;;12.60;4.50;;;;;;;12.36;48.63;102246.20;106883;1269;23920;-55
2024/02/27 08:47:27;;;;;;;12.50;4.10;;;;;;;12.43;48.57;102246.86;106829;1269;25386;-55
2024/02/27 08:49:55;;;;;;;14.90;4.30;;;;;;;12.47;48.32;102243.17;106920;1255;25361;-55
2024/02/27 08:52:23;;;;;;;13.00;4.20;;;;;;;12.53;48.30;102245.76;106865;1268;23974;-55
2024/02/27 08:54:51;;;;;;;14.60;4.40;;;;;;;12.58;48.29;102252.67;106885;1268;25383;-55
2024/02/27 08:57:18;;;;;;;12.70;4.70;;;;;;;12.61;48.04;102248.66;106751;1275;24552;-55
2024/02/27 08:59:47;;;;;;;13.60;5.40;;;;;;;12.65;48.01;102253.68;106159;1268;1003866;-54
2024/02/27 09:02:16;;;;;;;13.20;4.50;;;;;;;12.67;47.91;102248.45;106802;1269;25353;-55
2024/02/27 09:04:43;;;;;;;12.30;4.30;;;;;;;12.70;47.68;102249.48;106962;1252;25453;-54
2024/02/27 09:07:11;;;;;;;10.70;4.20;;;;;;;12.73;47.76;102247.89;106913;1268;22785;-55
2024/02/27 09:09:42;;;;;;;11.30;4.00;;;;;;;12.77;47.69;102251.69;106005;1268;1003390;-55
2024/02/27 09:12:13;;;;;;;12.70;4.40;;;;;;;12.80;47.41;102253.74;106952;1268;22585;-55
2024/02/27 09:14:40;;;;;;;24.90;4.80;;;;;;;12.75;47.63;102258.31;106847;1268;24285;-55
2024/02/27 09:17:08;;;;;;;14.40;4.50;;;;;;;12.69;47.72;102260.97;106873;1273;24228;-55
2024/02/27 09:19:36;;;;;;;13.10;4.50;;;;;;;12.72;47.58;102263.56;106857;1268;25239;-55
2024/02/27 09:22:04;;;;;;;13.70;5.30;;;;;;;12.75;47.46;102264.59;106848;1275;25355;-55
2024/02/27 09:24:32;;;;;;;8.80;4.60;;;;;;;12.78;47.42;102264.05;106880;1268;22574;-55
2024/02/27 09:27:00;;;;;;;17.50;5.20;;;;;;;12.79;47.33;102265.79;106372;1267;1003556;-54
2024/02/27 09:29:33;;;;;;;13.00;4.80;;;;;;;12.77;47.21;102264.05;106689;1274;24239;-54
2024/02/27 09:32:01;;;;;;;15.90;5.30;;;;;;;12.74;47.31;102269.31;107135;1268;22523;-54
2024/02/27 09:34:29;;;;;;;12.00;5.00;;;;;;;12.70;47.32;102278.38;107064;1268;22543;-55
2024/02/27 09:36:57;;;;;;;18.00;5.00;;;;;;;12.65;47.38;102277.54;107178;1267;22542;-55
2024/02/27 09:39:25;;;;;;;14.00;4.80;;;;;;;12.63;47.53;102279.63;107032;1269;23992;-56
2024/02/27 09:42:05;;;;;;;15.10;5.00;;;;;;;12.65;47.30;102281.54;106962;1270;22530;-55
2024/02/27 09:44:33;;;;;;;13.40;4.30;;;;;;;12.82;47.00;102284.74;107254;1270;22518;-56
2024/02/27 09:47:03;;;;;;;16.30;5.60;;;;;;;12.86;47.02;102286.45;106591;1255;1015361;-55
2024/02/27 09:49:30;;;;;;;12.20;5.00;;;;;;;12.84;46.89;102286.81;106203;1269;1003125;-54
2024/02/27 09:52:11;;;;;;;18.00;6.40;;;;;;;12.80;47.16;102295.72;106768;1270;22650;-54
2024/02/27 09:54:38;;;;;;;39.40;14.70;;;;;;;12.78;47.20;102290.87;107187;1269;22757;-55
2024/02/27 09:57:08;;;;;;;91.20;34.00;;;;;;;12.75;47.40;102294.36;106978;1273;22539;-55
2024/02/27 09:59:38;;;;;;;86.40;29.80;;;;;;;12.75;47.41;102292.45;106912;1274;22546;-55
2024/02/27 10:02:09;;;;;;;30.80;10.90;;;;;;;12.75;47.21;102294.19;107006;1268;25276;-55
2024/02/27 10:04:37;;;;;;;21.10;6.30;;;;;;;12.76;46.98;102289.30;107359;1260;22519;-55
2024/02/27 10:07:06;;;;;;;19.00;7.80;;;;;;;12.78;47.11;102288.95;106658;1260;23905;-55
2024/02/27 10:12:51;;;;;;;28.10;10.80;;;;;;;12.88;47.04;102282.77;104303;1305;547727;-54
2024/02/27 10:15:19;;;;;;;22.10;7.90;;;;;;;12.86;47.23;102285.58;106180;1288;25483;-55
2024/02/27 10:17:47;;;;;;;21.30;7.40;;;;;;;12.89;47.23;102284.33;105185;1286;1003302;-54
2024/02/27 10:20:17;;;;;;;18.90;6.30;;;;;;;12.93;47.09;102286.74;106091;1285;24224;-54
2024/02/27 10:22:46;;;;;;;12.70;5.10;;;;;;;12.98;47.03;102287.06;106214;1282;22676;-54
2024/02/27 10:25:14;;;;;;;12.80;4.80;;;;;;;13.00;46.78;102284.09;106225;1281;22564;-55
2024/02/27 10:27:43;;;;;;;17.10;5.10;;;;;;;13.00;46.85;102286.52;106470;1279;300378;-55
2024/02/27 10:30:12;;;;;;;12.20;4.80;;;;;;;13.01;46.84;102285.31;105839;1280;1002561;-54
2024/02/27 10:32:41;;;;;;;17.40;5.40;;;;;;;13.02;46.59;102285.45;106272;1279;22672;-54
2024/02/27 10:35:13;;;;;;;19.80;6.90;;;;;;;13.00;46.52;102286.34;106308;1279;22537;-54
2024/02/27 10:37:44;;;;;;;14.20;5.40;;;;;;;13.01;46.67;102289.46;106377;1279;22546;-56
2024/02/27 10:40:13;;;;;;;17.90;5.30;;;;;;;13.03;46.29;102294.17;106469;1279;23925;-55
2024/02/27 10:42:42;;;;;;;14.70;5.10;;;;;;;13.03;46.13;102294.52;106609;1269;22588;-55
2024/02/27 10:45:11;;;;;;;19.30;5.30;;;;;;;13.04;46.31;102301.16;106561;1279;23129;-55
2024/02/27 10:47:42;;;;;;;22.10;5.40;;;;;;;13.04;46.23;102295.40;105661;1279;1003645;-55
2024/02/27 10:50:13;;;;;;;18.50;4.90;;;;;;;13.03;46.09;102295.90;106405;1279;22540;-55
2024/02/27 10:52:42;;;;;;;20.30;4.90;;;;;;;13.00;46.32;102295.40;106505;1282;22682;-55
2024/02/27 10:55:09;;;;;;;23.50;6.30;;;;;;;13.01;46.47;102290.52;105930;1285;22548;-55
2024/02/27 10:57:38;;;;;;;20.20;5.10;;;;;;;13.02;46.59;102289.64;106104;1282;23413;-56
2024/02/27 11:00:08;;;;;;;15.00;5.50;;;;;;;13.07;46.65;102293.12;105873;1266;22545;-55
2024/02/27 11:02:38;;;;;;;12.60;4.80;;;;;;;13.11;46.44;102298.70;105784;1289;25510;-55
2024/02/27 11:05:06;;;;;;;16.80;5.00;;;;;;;13.12;46.33;102298.15;105944;1284;25416;-56
2024/02/27 11:07:34;;;;;;;20.20;5.80;;;;;;;13.14;46.45;102302.31;105220;1285;1003047;-55
2024/02/27 11:10:03;;;;;;;17.50;5.00;;;;;;;13.16;46.02;102305.08;105946;1282;24528;-55
2024/02/27 11:12:31;;;;;;;12.60;5.50;;;;;;;13.18;46.06;102300.19;105790;1282;24272;-54
2024/02/27 11:15:04;;;;;;;20.30;8.10;;;;;;;13.20;45.92;102297.55;104926;1286;1003409;-55
2024/02/27 11:17:33;;;;;;;33.50;18.30;;;;;;;13.17;45.82;102298.11;106024;1287;22549;-54
2024/02/27 11:20:02;;;;;;;42.00;22.80;;;;;;;13.07;46.01;102297.12;106045;1285;24254;-55
2024/02/27 11:22:30;;;;;;;29.70;13.60;;;;;;;13.02;46.10;102300.10;106185;1284;22669;-55